createdAt,value
2022-11-16T00:03:55.959Z,70.52
2022-11-16T00:09:18.651Z,70.74
2022-11-16T00:14:21.571Z,70.93
2022-11-16T00:19:24.255Z,70.89
2022-11-16T00:24:25.912Z,70.92
2022-11-16T00:29:27.742Z,71.14
2022-11-16T00:34:29.495Z,71.27
2022-11-16T00:39:31.250Z,71.32
2022-11-16T00:44:32.986Z,71.73
2022-11-16T00:49:34.667Z,71.70
2022-11-16T00:54:36.329Z,71.61
2022-11-16T00:59:37.952Z,72.16
2022-11-16T01:04:39.612Z,73.00
2022-11-16T01:09:41.249Z,73.38
2022-11-16T01:14:45.257Z,73.24
2022-11-16T01:19:46.888Z,73.11
2022-11-16T01:24:48.535Z,72.93
2022-11-16T01:29:50.182Z,73.18
2022-11-16T01:34:52.180Z,73.28
2022-11-16T01:39:54.223Z,73.68
2022-11-16T01:45:15.224Z,73.99
2022-11-16T01:50:18.407Z,73.48
2022-11-16T01:55:21.760Z,73.18
2022-11-16T02:00:23.598Z,73.32
2022-11-16T02:05:59.639Z,73.32
2022-11-16T02:11:01.238Z,73.14
2022-11-16T02:16:39.392Z,72.88
2022-11-16T02:21:52.154Z,72.39
2022-11-16T02:26:56.631Z,72.48
2022-11-16T02:32:15.222Z,72.29
2022-11-16T02:37:20.638Z,72.42
2022-11-16T02:42:29.938Z,72.55
2022-11-16T02:47:34.655Z,72.52
2022-11-16T02:52:37.820Z,71.98
2022-11-16T02:57:46.062Z,72.13
2022-11-16T03:03:10.224Z,71.67
2022-11-16T03:08:33.406Z,72.11
2022-11-16T03:13:37.414Z,72.75
2022-11-16T03:18:40.831Z,72.91
2022-11-16T03:23:43.984Z,72.21
2022-11-16T03:29:05.807Z,72.69
2022-11-16T03:34:16.270Z,72.66
2022-11-16T03:39:24.161Z,72.64
2022-11-16T03:44:26.975Z,72.72
2022-11-16T03:49:31.187Z,72.80
2022-11-16T03:54:32.794Z,72.87
2022-11-16T03:59:34.422Z,73.20
2022-11-16T04:04:54.538Z,73.27
2022-11-16T04:10:14.705Z,72.80
2022-11-16T04:15:34.794Z,72.42
2022-11-16T04:20:55.279Z,72.35
2022-11-16T04:25:57.640Z,72.30
2022-11-16T04:31:20.818Z,72.60
2022-11-16T04:36:41.570Z,72.29
2022-11-16T04:42:01.809Z,72.21
2022-11-16T04:47:06.746Z,72.37
2022-11-16T04:52:09.001Z,72.18
2022-11-16T04:57:10.703Z,71.94
2022-11-16T05:02:13.235Z,71.97
2022-11-16T05:07:24.320Z,72.37
2022-11-16T05:12:31.947Z,72.32
2022-11-16T05:17:41.015Z,72.22
2022-11-16T05:22:42.800Z,71.77
2022-11-16T05:27:44.455Z,71.53
2022-11-16T05:32:48.292Z,71.72
2022-11-16T05:37:50.021Z,71.50
2022-11-16T05:42:51.662Z,71.50
2022-11-16T05:47:55.412Z,71.38
2022-11-16T05:52:57.031Z,71.24
2022-11-16T05:57:59.790Z,71.50
2022-11-16T06:03:01.538Z,71.38
2022-11-16T06:08:05.752Z,71.49
2022-11-16T06:13:08.503Z,71.75
2022-11-16T06:18:15.206Z,71.63
2022-11-16T06:23:19.146Z,71.65
2022-11-16T06:28:28.196Z,71.81
2022-11-16T06:33:33.509Z,72.04
2022-11-16T06:38:41.073Z,72.08
2022-11-16T06:43:43.836Z,72.24
2022-11-16T06:48:45.601Z,72.39
2022-11-16T06:53:49.312Z,72.37
2022-11-16T06:58:53.549Z,72.58
2022-11-16T07:03:57.201Z,72.47
2022-11-16T07:09:09.744Z,72.85
2022-11-16T07:14:12.540Z,72.53
2022-11-16T07:19:15.537Z,72.55
2022-11-16T07:24:28.377Z,72.50
2022-11-16T07:29:32.192Z,72.04
2022-11-16T07:34:33.936Z,72.21
2022-11-16T07:39:35.734Z,71.80
2022-11-16T07:44:44.508Z,71.88
2022-11-16T07:49:48.996Z,71.78
2022-11-16T07:54:51.349Z,71.68
2022-11-16T07:59:58.320Z,71.49
2022-11-16T08:05:02.145Z,71.14
2022-11-16T08:10:10.080Z,70.29
2022-11-16T08:15:23.456Z,69.97
2022-11-16T08:20:25.474Z,70.01
2022-11-16T08:25:30.356Z,69.94
2022-11-16T08:30:38.645Z,69.88
2022-11-16T08:35:40.531Z,69.62
2022-11-16T08:40:42.454Z,68.95
2022-11-16T08:45:49.576Z,68.30
2022-11-16T08:51:16.077Z,68.47
2022-11-16T08:56:14.612Z,67.99
2022-11-16T09:01:23.436Z,67.30
2022-11-16T09:06:27.015Z,67.39
2022-11-16T09:11:30.012Z,67.64
2022-11-16T09:16:40.494Z,67.03
2022-11-16T09:21:50.523Z,66.75
2022-11-16T09:26:57.559Z,66.88
2022-11-16T09:31:59.451Z,66.62
2022-11-16T09:37:01.789Z,66.11
2022-11-16T09:42:25.645Z,65.09
2022-11-16T09:47:49.157Z,65.16
2022-11-16T09:52:56.462Z,65.23
2022-11-16T09:58:03.222Z,64.31
2022-11-16T10:03:12.390Z,62.54
2022-11-16T10:08:23.152Z,63.26
2022-11-16T10:14:06.144Z,63.01
2022-11-16T10:19:30.801Z,62.57
2022-11-16T10:24:57.826Z,61.89
2022-11-16T10:30:08.862Z,62.00
2022-11-16T10:42:11.808Z,61.91
2022-11-16T10:47:34.028Z,61.94
2022-11-16T10:52:37.373Z,62.27
2022-11-16T10:58:05.245Z,62.07
2022-11-16T11:03:12.363Z,61.87
2022-11-16T11:08:26.054Z,60.89
2022-11-16T11:13:28.011Z,60.79
2022-11-16T11:18:30.202Z,60.02
2022-11-16T11:24:10.560Z,59.16
2022-11-16T11:29:32.459Z,58.53
2022-11-16T11:34:44.897Z,58.61
2022-11-16T11:39:48.391Z,59.86
2022-11-16T11:44:59.331Z,58.69
2022-11-16T11:50:40.454Z,59.20
2022-11-16T11:55:42.385Z,58.51
2022-11-16T12:01:25.484Z,57.68
2022-11-16T12:06:45.021Z,56.44
2022-11-16T12:12:11.817Z,57.49
2022-11-16T12:24:00.434Z,56.45
2022-11-16T12:29:22.031Z,57.31
2022-11-16T12:34:44.085Z,57.44
2022-11-16T12:40:04.539Z,56.52
2022-11-16T12:45:31.986Z,55.69
2022-11-16T12:51:19.752Z,54.39
2022-11-16T12:56:44.560Z,54.07
2022-11-16T13:02:00.599Z,54.39
2022-11-16T13:07:17.128Z,55.54
2022-11-16T13:12:26.656Z,56.34
2022-11-16T13:17:37.136Z,56.72
2022-11-16T13:22:44.988Z,55.83
2022-11-16T13:28:06.189Z,55.73
2022-11-16T13:33:36.199Z,55.81
2022-11-16T13:38:52.737Z,55.36
2022-11-16T13:43:55.133Z,56.11
2022-11-16T13:48:56.860Z,55.58
2022-11-16T13:59:28.364Z,56.70
2022-11-16T14:04:38.898Z,55.36
2022-11-16T14:09:47.472Z,54.67
2022-11-16T14:15:15.073Z,52.24
2022-11-16T14:20:34.909Z,54.07
2022-11-16T14:25:42.698Z,53.42
2022-11-16T14:31:05.813Z,54.80
2022-11-16T14:36:09.753Z,55.82
2022-11-16T14:41:22.895Z,56.65
2022-11-16T14:46:36.307Z,57.72
2022-11-16T14:51:44.836Z,58.42
2022-11-16T14:57:00.287Z,59.13
2022-11-16T15:02:15.122Z,59.15
2022-11-16T15:07:18.474Z,59.93
2022-11-16T15:12:42.546Z,59.66
2022-11-16T15:18:07.702Z,59.59
2022-11-16T15:23:14.801Z,59.47
2022-11-16T15:28:20.677Z,59.21
2022-11-16T15:33:29.715Z,59.29
2022-11-16T15:38:32.926Z,59.72
2022-11-16T15:43:45.424Z,60.53
2022-11-16T15:48:52.558Z,60.75
2022-11-16T15:53:55.323Z,60.89
2022-11-16T15:59:01.381Z,61.51
2022-11-16T16:04:06.534Z,62.16
2022-11-16T16:09:18.385Z,62.16
2022-11-16T16:14:30.798Z,61.73
2022-11-16T16:19:42.629Z,62.31
2022-11-16T16:24:46.649Z,62.34
2022-11-16T16:29:50.069Z,62.65
2022-11-16T16:34:55.606Z,62.90
2022-11-16T16:39:58.480Z,63.32
2022-11-16T16:45:00.614Z,63.25
2022-11-16T16:50:05.870Z,63.16
2022-11-16T16:55:07.930Z,63.55
2022-11-16T17:00:17.968Z,63.44
2022-11-16T17:05:21.646Z,64.25
2022-11-16T17:10:25.519Z,64.66
2022-11-16T17:15:30.231Z,64.88
2022-11-16T17:20:33.063Z,65.07
2022-11-16T17:25:37.402Z,65.19
2022-11-16T17:30:42.280Z,65.71
2022-11-16T17:35:43.989Z,66.05
2022-11-16T17:40:46.685Z,65.97
2022-11-16T17:45:50.405Z,66.26
2022-11-16T17:50:57.242Z,67.11
2022-11-16T17:55:58.983Z,67.32
2022-11-16T18:01:00.842Z,67.78
2022-11-16T18:06:07.434Z,69.13
2022-11-16T18:11:31.988Z,69.30
2022-11-16T18:16:34.169Z,68.88
2022-11-16T18:21:42.183Z,69.19
2022-11-16T18:26:45.160Z,68.89
2022-11-16T18:31:49.947Z,68.88
2022-11-16T18:36:51.614Z,68.53
2022-11-16T18:41:54.985Z,68.64
2022-11-16T18:46:57.400Z,68.88
2022-11-16T18:51:59.084Z,68.23
2022-11-16T18:57:02.906Z,68.15
2022-11-16T19:02:07.244Z,68.35
2022-11-16T19:07:09.136Z,68.30
2022-11-16T19:12:10.842Z,68.39
2022-11-16T19:17:12.499Z,68.17
2022-11-16T19:22:15.202Z,67.96
2022-11-16T19:27:23.391Z,67.81
2022-11-16T19:32:26.084Z,67.84
2022-11-16T19:37:35.903Z,67.94
2022-11-16T19:42:40.722Z,67.86
2022-11-16T19:47:45.344Z,67.93
2022-11-16T19:52:57.242Z,67.83
2022-11-16T19:57:58.872Z,67.91
2022-11-16T20:03:00.622Z,67.68
2022-11-16T20:08:02.260Z,67.89
2022-11-16T20:13:04.039Z,67.67
2022-11-16T20:18:05.902Z,67.70
2022-11-16T20:23:07.543Z,67.41
2022-11-16T20:28:09.656Z,67.57
2022-11-16T20:33:11.368Z,68.03
2022-11-16T20:38:13.001Z,68.42
2022-11-16T20:43:14.803Z,68.43
2022-11-16T20:48:16.417Z,68.71
2022-11-16T20:53:18.063Z,68.54
2022-11-16T20:58:23.047Z,68.54
2022-11-16T21:03:24.811Z,69.77
2022-11-16T21:08:27.467Z,70.05
2022-11-16T21:13:47.822Z,69.94
2022-11-16T21:18:49.932Z,69.59
2022-11-16T21:23:51.945Z,69.97
2022-11-16T21:28:54.502Z,69.89
2022-11-16T21:33:56.985Z,69.94
2022-11-16T21:38:59.195Z,69.68
2022-11-16T21:44:00.797Z,69.69
2022-11-16T21:49:02.524Z,69.60
2022-11-16T21:54:04.747Z,69.46
2022-11-16T21:59:06.895Z,69.19
2022-11-16T22:04:27.061Z,69.22
2022-11-16T22:09:28.684Z,69.60
2022-11-16T22:14:30.358Z,69.17
2022-11-16T22:19:31.984Z,69.03
2022-11-16T22:24:33.620Z,69.12
2022-11-16T22:29:35.294Z,69.17
2022-11-16T22:34:37.030Z,69.51
2022-11-16T22:39:38.663Z,69.73
2022-11-16T22:44:40.306Z,70.04
2022-11-16T22:49:41.935Z,70.20
2022-11-16T22:54:43.565Z,70.24
2022-11-16T22:59:45.350Z,70.14
2022-11-16T23:04:46.964Z,69.97
2022-11-16T23:09:48.587Z,69.50
2022-11-16T23:15:08.856Z,69.29
2022-11-16T23:20:29.184Z,68.85
2022-11-16T23:25:49.645Z,68.76
2022-11-16T23:30:51.272Z,68.60
2022-11-16T23:35:52.882Z,68.34
2022-11-16T23:40:54.483Z,67.79
2022-11-16T23:45:56.090Z,67.93
2022-11-16T23:50:57.717Z,67.41
2022-11-16T23:56:05.719Z,67.49
